createdAt,value
2018-08-01T00:00:38.237Z,22.90
2018-08-01T00:03:07.208Z,22.90
2018-08-01T00:05:36.182Z,22.80
2018-08-01T00:08:05.147Z,22.80
2018-08-01T00:10:34.111Z,22.80
2018-08-01T00:13:03.103Z,22.80
2018-08-01T00:15:32.078Z,22.80
2018-08-01T00:18:01.076Z,22.80
2018-08-01T00:20:30.064Z,22.80
2018-08-01T00:25:28.167Z,22.70
2018-08-01T00:27:57.147Z,22.60
2018-08-01T00:30:26.115Z,22.60
2018-08-01T00:32:55.079Z,22.50
2018-08-01T00:35:24.050Z,22.60
2018-08-01T00:37:53.126Z,22.60
2018-08-01T00:40:22.095Z,22.60
2018-08-01T00:42:51.115Z,22.50
2018-08-01T00:45:20.084Z,22.40
2018-08-01T00:47:51.050Z,22.30
2018-08-01T00:50:20.964Z,22.30
2018-08-01T00:52:49.911Z,22.30
2018-08-01T00:55:18.887Z,22.30
2018-08-01T00:57:47.863Z,22.30
2018-08-01T01:00:16.843Z,22.30
2018-08-01T01:02:45.929Z,22.20
2018-08-01T01:05:14.892Z,22.30
2018-08-01T01:07:43.939Z,22.20
2018-08-01T01:10:12.963Z,22.30
2018-08-01T01:12:42.336Z,22.20
2018-08-01T01:15:11.307Z,22.20
2018-08-01T01:17:40.274Z,22.20
2018-08-01T01:20:09.227Z,22.10
2018-08-01T01:22:38.222Z,22.10
2018-08-01T01:25:07.270Z,22.10
2018-08-01T01:27:36.275Z,22.10
2018-08-01T01:30:05.439Z,22.10
2018-08-01T01:32:34.450Z,22.10
2018-08-01T01:35:03.814Z,22.00
2018-08-01T01:37:32.874Z,22.00
2018-08-01T01:40:01.860Z,21.90
2018-08-01T01:42:30.833Z,21.90
2018-08-01T01:44:59.859Z,21.80
2018-08-01T01:47:28.828Z,21.80
2018-08-01T01:49:57.791Z,21.80
2018-08-01T01:52:38.083Z,21.80
2018-08-01T01:55:07.223Z,21.90
2018-08-01T01:57:36.223Z,21.90
2018-08-01T02:00:06.348Z,22.00
2018-08-01T02:02:36.062Z,22.00
2018-08-01T02:05:05.056Z,21.90
2018-08-01T02:07:34.050Z,22.00
2018-08-01T02:10:03.015Z,21.90
2018-08-01T02:12:31.967Z,21.90
2018-08-01T02:15:01.003Z,21.90
2018-08-01T02:17:29.988Z,21.90
2018-08-01T02:19:58.998Z,21.90
2018-08-01T02:22:27.974Z,21.90
2018-08-01T02:24:56.939Z,21.90
2018-08-01T02:27:25.943Z,21.80
2018-08-01T02:29:54.907Z,21.80
2018-08-01T02:32:23.899Z,21.80
2018-08-01T02:34:52.892Z,21.70
2018-08-01T02:37:21.854Z,21.70
2018-08-01T02:39:50.867Z,21.70
2018-08-01T02:42:19.877Z,21.70
2018-08-01T02:44:48.843Z,21.70
2018-08-01T02:47:17.847Z,21.70
2018-08-01T02:49:46.885Z,21.70
2018-08-01T02:52:15.857Z,21.70
2018-08-01T02:54:44.823Z,21.80
2018-08-01T02:57:13.811Z,21.60
2018-08-01T02:59:42.775Z,21.60
2018-08-01T03:02:11.766Z,21.60
2018-08-01T03:04:40.736Z,21.60
2018-08-01T03:07:10.329Z,21.60
2018-08-01T03:09:39.483Z,21.70
2018-08-01T03:12:08.446Z,21.60
2018-08-01T03:14:37.396Z,21.80
2018-08-01T03:17:07.046Z,21.80
2018-08-01T03:19:36.388Z,21.80
2018-08-01T03:22:05.595Z,21.90
2018-08-01T03:24:34.542Z,21.90
2018-08-01T03:27:03.554Z,21.90
2018-08-01T03:29:32.651Z,21.70
2018-08-01T03:32:01.627Z,21.50
2018-08-01T03:34:30.611Z,21.30
2018-08-01T03:36:59.610Z,21.30
2018-08-01T03:39:28.611Z,21.20
2018-08-01T03:44:26.254Z,21.10
2018-08-01T03:46:55.255Z,21.10
2018-08-01T03:49:24.335Z,21.10
2018-08-01T03:51:53.286Z,21.10
2018-08-01T03:54:22.256Z,21.20
2018-08-01T03:59:19.855Z,21.30
2018-08-01T04:01:48.807Z,21.40
2018-08-01T04:04:17.818Z,21.40
2018-08-01T04:06:46.807Z,21.50
2018-08-01T04:09:15.784Z,21.60
2018-08-01T04:11:45.056Z,21.50
2018-08-01T04:14:14.958Z,21.60
2018-08-01T04:16:44.486Z,21.50
2018-08-01T04:19:13.557Z,21.50
2018-08-01T04:21:42.524Z,21.50
2018-08-01T04:24:11.524Z,21.40
2018-08-01T04:26:40.626Z,21.30
2018-08-01T04:29:09.703Z,21.20
2018-08-01T04:31:38.652Z,21.20
2018-08-01T04:34:08.034Z,21.10
2018-08-01T04:36:37.199Z,20.90
2018-08-01T04:39:08.655Z,20.90
2018-08-01T04:41:37.648Z,20.80
2018-08-01T04:44:07.988Z,20.70
2018-08-01T04:46:37.045Z,20.70
2018-08-01T04:49:06.058Z,20.60
2018-08-01T04:51:35.051Z,20.60
2018-08-01T04:54:04.019Z,20.50
2018-08-01T04:56:32.992Z,20.60
2018-08-01T04:59:01.971Z,20.70
2018-08-01T05:01:31.015Z,20.70
2018-08-01T05:03:59.976Z,20.80
2018-08-01T05:06:28.930Z,21.00
2018-08-01T05:08:57.914Z,21.20
2018-08-01T05:11:26.913Z,21.40
2018-08-01T05:13:55.916Z,21.50
2018-08-01T05:16:24.904Z,21.60
2018-08-01T05:18:54.156Z,21.70
2018-08-01T05:21:23.152Z,21.70
2018-08-01T05:23:52.592Z,21.70
2018-08-01T05:26:21.612Z,21.60
2018-08-01T05:28:50.627Z,21.40
2018-08-01T05:31:19.646Z,21.30
2018-08-01T05:33:48.711Z,21.30
2018-08-01T05:36:17.690Z,21.20
2018-08-01T05:38:46.883Z,21.20
2018-08-01T05:41:15.909Z,21.30
2018-08-01T05:43:44.888Z,21.30
2018-08-01T05:46:13.927Z,21.20
2018-08-01T05:51:11.682Z,21.10
2018-08-01T05:53:40.711Z,20.90
2018-08-01T05:56:16.466Z,20.90
2018-08-01T05:58:45.464Z,20.70
2018-08-01T06:01:14.440Z,20.50
2018-08-01T06:03:43.478Z,20.50
2018-08-01T06:06:12.460Z,20.60
2018-08-01T06:08:41.407Z,20.70
2018-08-01T06:11:12.483Z,20.80
2018-08-01T06:13:41.419Z,21.00
2018-08-01T06:16:10.835Z,21.10
2018-08-01T06:18:39.762Z,21.30
2018-08-01T06:21:08.728Z,21.40
2018-08-01T06:23:37.722Z,21.40
2018-08-01T06:26:06.726Z,21.40
2018-08-01T06:28:35.716Z,21.50
2018-08-01T06:31:04.711Z,21.60
2018-08-01T06:33:33.650Z,21.70
2018-08-01T06:36:02.706Z,21.80
2018-08-01T06:38:31.723Z,21.90
2018-08-01T06:41:00.685Z,22.00
2018-08-01T06:45:58.327Z,21.90
2018-08-01T06:48:27.339Z,21.90
2018-08-01T06:50:56.395Z,22.00
2018-08-01T06:53:25.373Z,22.10
2018-08-01T06:55:54.443Z,22.20
2018-08-01T06:58:23.399Z,22.30
2018-08-01T07:00:52.444Z,22.40
2018-08-01T07:03:21.435Z,22.30
2018-08-01T07:05:50.425Z,22.30
2018-08-01T07:08:19.391Z,22.30
2018-08-01T07:10:48.372Z,22.20
2018-08-01T07:13:17.416Z,22.20
2018-08-01T07:15:46.352Z,22.30
2018-08-01T07:18:15.331Z,22.40
2018-08-01T07:20:44.332Z,22.50
2018-08-01T07:23:13.359Z,22.50
2018-08-01T07:25:42.592Z,22.70
2018-08-01T07:28:11.603Z,22.80
2018-08-01T07:30:40.578Z,22.80
2018-08-01T07:33:09.531Z,22.80
2018-08-01T07:35:38.542Z,22.90
2018-08-01T07:38:07.543Z,22.90
2018-08-01T07:40:36.517Z,23.10
2018-08-01T07:43:05.504Z,23.20
2018-08-01T07:45:34.526Z,23.20
2018-08-01T07:48:03.486Z,23.20
2018-08-01T07:50:32.477Z,23.30
2018-08-01T07:53:01.443Z,23.30
2018-08-01T07:55:30.406Z,23.50
2018-08-01T07:57:59.367Z,23.50
2018-08-01T08:00:28.315Z,23.70
2018-08-01T08:02:57.307Z,23.90
2018-08-01T08:05:26.362Z,24.10
2018-08-01T08:07:55.350Z,24.30
2018-08-01T08:10:24.363Z,24.60
2018-08-01T08:12:53.359Z,24.70
2018-08-01T08:15:22.347Z,24.60
2018-08-01T08:17:51.356Z,24.50
2018-08-01T08:20:20.343Z,24.30
2018-08-01T08:22:49.327Z,24.40
2018-08-01T08:25:18.311Z,24.70
2018-08-01T08:27:47.401Z,25.10
2018-08-01T08:30:16.439Z,25.30
2018-08-01T08:32:45.414Z,25.50
2018-08-01T08:35:14.408Z,25.50
2018-08-01T08:37:43.457Z,25.40
2018-08-01T08:40:12.446Z,25.40
2018-08-01T08:42:41.471Z,25.50
2018-08-01T08:45:10.505Z,25.60
2018-08-01T08:47:39.482Z,25.70
2018-08-01T08:50:08.523Z,25.70
2018-08-01T08:52:37.527Z,25.70
2018-08-01T08:55:06.550Z,25.60
2018-08-01T08:57:35.521Z,25.60
2018-08-01T09:00:05.206Z,25.70
2018-08-01T09:02:34.260Z,25.80
2018-08-01T09:05:03.190Z,25.90
2018-08-01T09:07:32.225Z,26.00
2018-08-01T09:10:01.299Z,26.20
2018-08-01T09:12:30.271Z,26.40
2018-08-01T09:14:59.268Z,26.50
2018-08-01T09:17:28.270Z,26.60
2018-08-01T09:19:57.303Z,26.90
2018-08-01T09:22:26.256Z,27.00
2018-08-01T09:24:55.249Z,27.10
2018-08-01T09:27:24.352Z,27.00
2018-08-01T09:29:53.351Z,27.10
2018-08-01T09:32:22.319Z,27.10
2018-08-01T09:34:51.310Z,27.20
2018-08-01T09:37:20.551Z,27.20
2018-08-01T09:39:49.575Z,27.20
2018-08-01T09:42:30.878Z,27.20
2018-08-01T09:44:59.878Z,27.20
2018-08-01T09:49:58.120Z,27.70
2018-08-01T09:52:27.116Z,28.10
2018-08-01T09:54:56.892Z,28.40
2018-08-01T09:57:25.245Z,28.80
2018-08-01T09:59:54.179Z,28.70
2018-08-01T10:03:37.828Z,28.80
2018-08-01T10:06:17.982Z,28.70
2018-08-01T10:08:47.088Z,28.80
2018-08-01T10:11:16.107Z,28.70
2018-08-01T10:13:45.084Z,28.80
2018-08-01T10:16:14.631Z,28.80
2018-08-01T10:18:43.826Z,28.60
2018-08-01T10:21:12.803Z,28.60
2018-08-01T10:23:41.826Z,28.70
2018-08-01T10:26:10.822Z,28.90
2018-08-01T10:28:39.934Z,28.70
2018-08-01T10:31:08.946Z,28.40
2018-08-01T10:33:37.964Z,28.20
2018-08-01T10:36:06.935Z,27.90
2018-08-01T10:38:35.916Z,27.90
2018-08-01T10:41:04.885Z,28.00
2018-08-01T10:43:33.872Z,28.00
2018-08-01T10:46:02.894Z,28.00
2018-08-01T10:48:31.832Z,28.20
2018-08-01T10:51:00.767Z,28.30
2018-08-01T10:53:29.760Z,28.40
2018-08-01T10:55:58.706Z,28.60
2018-08-01T10:58:27.735Z,28.70
2018-08-01T11:00:56.704Z,29.00
2018-08-01T11:03:25.664Z,29.40
2018-08-01T11:05:55.050Z,29.80
2018-08-01T11:08:24.087Z,29.80
2018-08-01T11:10:53.249Z,29.90
2018-08-01T11:13:23.275Z,29.60
2018-08-01T11:15:52.207Z,29.50
2018-08-01T11:18:21.292Z,29.60
2018-08-01T11:20:50.287Z,29.80
2018-08-01T11:23:19.279Z,29.70
2018-08-01T11:25:48.319Z,29.80
2018-08-01T11:28:17.304Z,29.80
2018-08-01T11:30:46.397Z,29.80
2018-08-01T11:33:15.374Z,29.90
2018-08-01T11:35:44.331Z,30.00
2018-08-01T11:38:13.355Z,30.10
2018-08-01T11:40:42.350Z,30.10
2018-08-01T11:43:11.371Z,30.10
2018-08-01T11:45:40.306Z,30.00
2018-08-01T11:48:09.307Z,30.10
2018-08-01T11:50:38.424Z,30.20
2018-08-01T11:53:07.340Z,30.10
2018-08-01T11:55:36.581Z,30.30
2018-08-01T11:58:05.775Z,30.50
2018-08-01T12:00:34.801Z,30.50
2018-08-01T12:03:03.855Z,30.50
2018-08-01T12:05:32.786Z,30.40
2018-08-01T12:08:01.783Z,30.50
2018-08-01T12:13:02.534Z,30.90
2018-08-01T12:15:32.008Z,31.20
2018-08-01T12:18:00.972Z,31.20
2018-08-01T12:20:30.001Z,31.20
2018-08-01T12:22:58.942Z,31.30
2018-08-01T12:25:27.900Z,31.30
2018-08-01T12:27:56.927Z,31.40
2018-08-01T12:30:27.039Z,31.40
2018-08-01T12:32:56.020Z,31.30
2018-08-01T12:37:53.655Z,30.90
2018-08-01T12:40:22.620Z,31.10
2018-08-01T12:42:51.604Z,31.10
2018-08-01T12:45:20.699Z,31.10
2018-08-01T12:47:49.755Z,31.30
2018-08-01T12:50:18.767Z,31.50
2018-08-01T12:52:47.723Z,31.40
2018-08-01T12:55:16.844Z,31.10
2018-08-01T12:57:45.759Z,31.00
2018-08-01T13:00:14.752Z,31.40
2018-08-01T13:02:43.803Z,31.70
2018-08-01T13:05:12.764Z,31.90
2018-08-01T13:07:42.041Z,31.80
2018-08-01T13:10:11.036Z,31.70
2018-08-01T13:12:40.035Z,31.40
2018-08-01T13:15:11.357Z,31.30
2018-08-01T13:17:41.167Z,31.30
2018-08-01T13:20:11.076Z,31.50
2018-08-01T13:22:40.090Z,31.40
2018-08-01T13:25:09.906Z,31.50
2018-08-01T13:27:39.185Z,31.50
2018-08-01T13:30:09.823Z,31.20
2018-08-01T13:32:38.856Z,31.00
2018-08-01T13:35:08.322Z,30.90
2018-08-01T13:37:37.429Z,30.90
2018-08-01T13:40:06.572Z,30.80
2018-08-01T13:42:35.560Z,30.80
2018-08-01T13:45:05.052Z,30.60
2018-08-01T13:47:34.091Z,30.40
2018-08-01T13:50:03.200Z,30.30
2018-08-01T13:52:32.171Z,30.20
2018-08-01T13:55:01.155Z,30.40
2018-08-01T13:57:30.311Z,30.40
2018-08-01T13:59:59.235Z,30.20
2018-08-01T14:02:28.222Z,30.20
2018-08-01T14:04:57.159Z,30.40
2018-08-01T14:07:26.354Z,30.30
2018-08-01T14:09:55.605Z,30.30
2018-08-01T14:12:24.607Z,30.40
2018-08-01T14:14:53.572Z,30.60
2018-08-01T14:17:22.591Z,30.60
2018-08-01T14:19:51.548Z,30.60
2018-08-01T14:22:21.545Z,30.70
2018-08-01T14:24:50.587Z,30.50
2018-08-01T14:27:19.571Z,30.40
2018-08-01T14:29:48.646Z,30.40
2018-08-01T14:32:17.559Z,30.60
2018-08-01T14:34:46.528Z,30.80
2018-08-01T14:37:15.500Z,30.90
2018-08-01T14:39:44.489Z,31.10
2018-08-01T14:42:13.466Z,30.80
2018-08-01T14:44:42.535Z,30.80
2018-08-01T14:47:11.496Z,30.90
2018-08-01T14:49:40.502Z,31.00
2018-08-01T14:52:09.448Z,31.10
2018-08-01T14:54:38.445Z,31.30
2018-08-01T14:57:07.567Z,31.00
2018-08-01T14:59:36.548Z,30.60
2018-08-01T15:02:05.567Z,30.60
2018-08-01T15:04:34.567Z,30.60
2018-08-01T15:07:03.507Z,30.60
2018-08-01T15:09:32.479Z,30.70
2018-08-01T15:12:01.488Z,30.80
2018-08-01T15:14:30.443Z,30.90
2018-08-01T15:16:59.471Z,31.00
2018-08-01T15:19:28.575Z,31.20
2018-08-01T15:21:57.584Z,31.30
2018-08-01T15:24:26.579Z,31.30
2018-08-01T15:26:55.695Z,31.60
2018-08-01T15:29:24.675Z,32.10
2018-08-01T15:31:53.599Z,32.70
2018-08-01T15:34:22.608Z,33.20
2018-08-01T15:36:51.639Z,33.40
2018-08-01T15:39:20.672Z,33.10
2018-08-01T15:41:49.643Z,32.90
2018-08-01T15:44:18.646Z,33.10
2018-08-01T15:46:47.571Z,33.20
2018-08-01T15:49:16.547Z,33.40
2018-08-01T15:51:45.532Z,33.40
2018-08-01T15:54:14.527Z,33.50
2018-08-01T15:56:43.515Z,34.20
2018-08-01T15:59:12.495Z,34.30
2018-08-01T16:01:41.508Z,34.20
2018-08-01T16:04:10.599Z,34.10
2018-08-01T16:06:39.558Z,34.00
2018-08-01T16:09:08.673Z,33.70
2018-08-01T16:11:37.713Z,33.80
2018-08-01T16:14:06.744Z,33.90
2018-08-01T16:16:35.739Z,34.20
2018-08-01T16:19:04.755Z,35.20
2018-08-01T16:21:33.778Z,35.90
2018-08-01T16:24:03.462Z,36.40
2018-08-01T16:26:32.524Z,37.50
2018-08-01T16:29:01.812Z,37.80
2018-08-01T16:31:31.327Z,38.30
2018-08-01T16:34:00.323Z,38.30
2018-08-01T16:38:57.947Z,38.20
2018-08-01T16:41:29.034Z,38.10
2018-08-01T16:46:55.671Z,38.00
2018-08-01T16:49:31.230Z,37.40
2018-08-01T16:52:00.601Z,36.60
2018-08-01T16:54:29.618Z,36.00
2018-08-01T16:56:58.581Z,35.80
2018-08-01T16:59:27.637Z,35.80
2018-08-01T17:01:56.627Z,35.80
2018-08-01T17:06:54.219Z,35.60
2018-08-01T17:11:51.838Z,36.40
2018-08-01T17:14:20.864Z,36.50
2018-08-01T17:16:49.911Z,36.70
2018-08-01T17:19:19.413Z,37.70
2018-08-01T17:21:48.419Z,38.70
2018-08-01T17:24:17.399Z,39.70
2018-08-01T17:26:46.801Z,40.00
2018-08-01T17:29:16.092Z,40.40
2018-08-01T17:31:45.179Z,41.20
2018-08-01T17:34:14.155Z,41.50
2018-08-01T17:36:43.123Z,41.70
2018-08-01T17:39:12.082Z,41.70
2018-08-01T17:41:41.987Z,41.20
2018-08-01T17:44:11.055Z,40.60
2018-08-01T17:46:42.020Z,39.20
2018-08-01T17:49:11.223Z,37.70
2018-08-01T17:51:41.021Z,35.80
2018-08-01T17:54:10.206Z,34.80
2018-08-01T17:56:39.235Z,34.00
2018-08-01T17:59:08.274Z,32.60
2018-08-01T18:01:38.209Z,32.60
2018-08-01T18:04:08.084Z,32.50
2018-08-01T18:06:37.137Z,32.40
2018-08-01T18:09:08.879Z,32.40
2018-08-01T18:11:38.263Z,32.40
2018-08-01T18:14:07.356Z,32.30
2018-08-01T18:16:36.923Z,32.30
2018-08-01T18:19:06.095Z,32.20
2018-08-01T18:24:03.995Z,31.90
2018-08-01T18:26:33.775Z,31.70
2018-08-01T18:31:31.877Z,31.40
2018-08-01T18:34:01.879Z,31.10
2018-08-01T18:36:30.963Z,30.90
2018-08-01T18:39:00.109Z,30.80
2018-08-01T18:41:29.101Z,30.60
2018-08-01T18:44:00.475Z,30.50
2018-08-01T18:46:29.479Z,30.30
2018-08-01T18:48:58.763Z,30.30
2018-08-01T18:51:27.790Z,30.20
2018-08-01T18:53:57.025Z,30.10
2018-08-01T18:56:25.996Z,30.00
2018-08-01T18:58:55.007Z,30.00
2018-08-01T19:01:23.967Z,29.90
2018-08-01T19:03:52.978Z,29.80
2018-08-01T19:08:50.696Z,29.70
2018-08-01T19:11:19.740Z,29.60
2018-08-01T19:13:48.809Z,29.50
2018-08-01T19:16:17.993Z,29.50
2018-08-01T19:18:47.522Z,29.40
2018-08-01T19:23:45.430Z,29.30
2018-08-01T19:26:15.802Z,29.20
2018-08-01T19:28:44.779Z,29.00
2018-08-01T19:31:13.819Z,28.90
2018-08-01T19:33:49.712Z,28.80
2018-08-01T19:36:18.808Z,28.80
2018-08-01T19:38:47.812Z,28.80
2018-08-01T19:41:16.873Z,28.70
2018-08-01T19:43:45.907Z,28.70
2018-08-01T19:46:14.873Z,28.70
2018-08-01T19:48:43.904Z,28.60
2018-08-01T19:51:13.250Z,28.70
2018-08-01T19:53:43.567Z,28.60
2018-08-01T19:56:12.345Z,28.60
2018-08-01T19:58:40.767Z,28.50
2018-08-01T20:01:11.763Z,28.50
2018-08-01T20:03:41.532Z,28.50
2018-08-01T20:06:10.516Z,28.50
2018-08-01T20:08:39.473Z,28.40
2018-08-01T20:11:09.191Z,28.40
2018-08-01T20:13:38.196Z,28.30
2018-08-01T20:16:07.227Z,28.20
2018-08-01T20:18:36.198Z,28.10
2018-08-01T20:21:06.194Z,28.10
2018-08-01T20:23:35.136Z,28.00
2018-08-01T20:26:04.484Z,28.00
2018-08-01T20:28:33.555Z,28.00
2018-08-01T20:31:03.107Z,27.90
2018-08-01T20:33:32.095Z,27.90
2018-08-01T20:36:02.132Z,27.80
2018-08-01T20:38:31.287Z,27.80
2018-08-01T20:41:00.464Z,27.80
2018-08-01T20:43:30.069Z,27.80
2018-08-01T20:45:59.038Z,27.80
2018-08-01T20:48:28.167Z,27.70
2018-08-01T20:50:57.403Z,27.60
2018-08-01T20:53:27.041Z,27.60
2018-08-01T20:55:56.058Z,27.60
2018-08-01T20:58:25.151Z,27.50
2018-08-01T21:00:54.151Z,27.50
2018-08-01T21:05:51.809Z,27.20
2018-08-01T21:08:20.781Z,27.20
2018-08-01T21:10:49.742Z,27.10
2018-08-01T21:13:18.724Z,27.10
2018-08-01T21:15:47.684Z,27.10
2018-08-01T21:18:16.663Z,27.10
2018-08-01T21:20:45.655Z,27.10
2018-08-01T21:23:14.631Z,27.00
2018-08-01T21:25:43.669Z,27.00
2018-08-01T21:28:12.642Z,27.00
2018-08-01T21:30:41.584Z,26.90
2018-08-01T21:33:10.538Z,26.90
2018-08-01T21:35:39.510Z,26.90
2018-08-01T21:38:08.490Z,26.90
2018-08-01T21:40:37.444Z,26.90
2018-08-01T21:43:06.436Z,26.80
2018-08-01T21:45:35.417Z,26.90
2018-08-01T21:48:04.374Z,26.80
2018-08-01T21:50:35.692Z,26.70
2018-08-01T21:53:04.639Z,26.70
2018-08-01T21:55:33.628Z,26.70
2018-08-01T21:58:02.587Z,26.60
2018-08-01T22:00:35.870Z,26.60
2018-08-01T22:03:04.884Z,26.60
2018-08-01T22:05:34.183Z,26.60
2018-08-01T22:08:03.160Z,26.60
2018-08-01T22:10:32.135Z,26.50
2018-08-01T22:13:01.108Z,26.50
2018-08-01T22:15:30.084Z,26.50
2018-08-01T22:17:59.046Z,26.60
2018-08-01T22:20:27.994Z,26.60
2018-08-01T22:22:57.196Z,26.60
2018-08-01T22:27:54.847Z,26.50
2018-08-01T22:30:23.796Z,26.50
2018-08-01T22:32:52.738Z,26.50
2018-08-01T22:35:21.766Z,26.50
2018-08-01T22:37:50.731Z,26.40
2018-08-01T22:40:19.723Z,26.40
2018-08-01T22:42:48.684Z,26.40
2018-08-01T22:45:17.667Z,26.30
2018-08-01T22:47:46.719Z,26.30
2018-08-01T22:50:15.718Z,26.20
2018-08-01T22:52:44.678Z,26.10
2018-08-01T22:55:13.646Z,26.10
2018-08-01T22:57:42.610Z,26.10
2018-08-01T23:00:11.566Z,26.10
2018-08-01T23:02:40.506Z,26.10
2018-08-01T23:05:09.543Z,26.00
2018-08-01T23:07:38.495Z,26.00
2018-08-01T23:10:07.450Z,25.90
2018-08-01T23:12:36.427Z,25.70
2018-08-01T23:15:06.508Z,25.60
2018-08-01T23:17:35.523Z,25.60
2018-08-01T23:20:04.697Z,25.60
2018-08-01T23:22:33.699Z,25.60
2018-08-01T23:25:02.687Z,25.60
2018-08-01T23:27:31.633Z,25.50
2018-08-01T23:30:00.628Z,25.30
2018-08-01T23:32:29.600Z,25.10
2018-08-01T23:34:58.568Z,25.00
2018-08-01T23:37:27.535Z,24.90
2018-08-01T23:39:56.648Z,24.80
2018-08-01T23:42:25.591Z,24.80
2018-08-01T23:44:55.175Z,24.80
2018-08-01T23:47:24.142Z,24.70
2018-08-01T23:49:53.302Z,24.70
2018-08-01T23:52:22.242Z,24.60
2018-08-01T23:54:51.236Z,24.50
2018-08-01T23:57:20.216Z,24.50
2018-08-01T23:59:49.228Z,24.50
